createdAt,value
2023-02-17T00:01:36.947Z,23.80
2023-02-17T00:04:05.546Z,23.70
2023-02-17T00:06:36.051Z,23.40
2023-02-17T00:09:05.526Z,23.20
2023-02-17T00:11:33.923Z,23.10
2023-02-17T00:14:02.259Z,23.00
2023-02-17T00:16:30.908Z,22.90
2023-02-17T00:19:03.911Z,22.90
2023-02-17T00:21:33.303Z,22.80
2023-02-17T00:24:04.480Z,22.70
2023-02-17T00:26:33.073Z,22.70
2023-02-17T00:29:01.504Z,22.70
2023-02-17T00:31:29.865Z,22.70
2023-02-17T00:34:00.801Z,22.60
2023-02-17T00:36:29.126Z,22.60
2023-02-17T00:38:58.851Z,22.60
2023-02-17T00:41:28.665Z,22.70
2023-02-17T00:43:59.266Z,22.70
2023-02-17T00:46:28.142Z,22.70
2023-02-17T00:48:56.615Z,22.70
2023-02-17T00:51:25.934Z,22.80
2023-02-17T00:53:54.359Z,23.00
2023-02-17T00:56:22.544Z,23.10
2023-02-17T00:58:51.067Z,23.30
2023-02-17T01:01:19.532Z,23.40
2023-02-17T01:03:47.958Z,23.50
2023-02-17T01:06:45.699Z,23.60
2023-02-17T01:09:15.482Z,23.70
2023-02-17T01:11:44.432Z,23.70
2023-02-17T01:14:16.981Z,23.40
2023-02-17T01:16:48.158Z,23.30
2023-02-17T01:19:19.251Z,23.30
2023-02-17T01:21:49.310Z,23.40
2023-02-17T01:24:17.588Z,23.60
2023-02-17T01:26:45.787Z,23.70
2023-02-17T01:29:14.089Z,23.70
2023-02-17T01:31:44.886Z,23.50
2023-02-17T01:34:13.384Z,23.20
2023-02-17T01:36:41.742Z,23.10
2023-02-17T01:39:17.599Z,22.90
2023-02-17T01:41:47.845Z,22.90
2023-02-17T01:44:22.127Z,22.80
2023-02-17T01:46:55.611Z,22.80
2023-02-17T01:49:32.067Z,22.70
2023-02-17T01:52:23.961Z,22.70
2023-02-17T01:55:02.191Z,22.70
2023-02-17T01:57:35.747Z,22.70
2023-02-17T02:00:08.017Z,22.80
2023-02-17T02:02:44.906Z,22.80
2023-02-17T02:05:17.647Z,22.80
2023-02-17T02:07:48.640Z,23.00
2023-02-17T02:10:18.760Z,23.10
2023-02-17T02:12:47.371Z,23.20
2023-02-17T02:15:20.570Z,23.30
2023-02-17T02:17:54.816Z,23.40
2023-02-17T02:20:41.419Z,23.50
2023-02-17T02:23:51.572Z,23.70
2023-02-17T02:26:35.163Z,23.70
2023-02-17T02:29:37.219Z,23.40
2023-02-17T02:32:39.491Z,23.20
2023-02-17T02:35:51.553Z,23.30
2023-02-17T02:38:57.486Z,23.40
2023-02-17T02:41:38.623Z,23.60
2023-02-17T02:44:10.167Z,23.70
2023-02-17T02:46:40.237Z,23.50
2023-02-17T02:49:12.573Z,23.20
2023-02-17T02:52:27.494Z,23.00
2023-02-17T02:55:15.759Z,22.80
2023-02-17T02:57:55.488Z,22.70
2023-02-17T03:00:49.559Z,22.70
2023-02-17T03:03:18.750Z,22.60
2023-02-17T03:06:14.326Z,22.60
2023-02-17T03:08:45.035Z,22.40
2023-02-17T03:11:14.502Z,22.60
2023-02-17T03:13:42.855Z,22.90
2023-02-17T03:16:16.435Z,23.10
2023-02-17T03:18:44.900Z,23.10
2023-02-17T03:21:17.860Z,23.20
2023-02-17T03:23:46.319Z,23.30
2023-02-17T03:26:14.453Z,23.40
2023-02-17T03:28:42.863Z,23.50
2023-02-17T03:31:11.175Z,23.60
2023-02-17T03:33:39.431Z,23.70
2023-02-17T03:36:08.229Z,23.70
2023-02-17T03:38:36.592Z,23.40
2023-02-17T03:41:05.100Z,23.20
2023-02-17T03:43:33.502Z,22.90
2023-02-17T03:46:02.003Z,22.80
2023-02-17T03:48:30.450Z,22.70
2023-02-17T03:50:58.764Z,22.70
2023-02-17T03:53:27.121Z,22.60
2023-02-17T03:55:55.491Z,22.60
2023-02-17T03:58:23.704Z,22.60
2023-02-17T04:00:51.931Z,22.60
2023-02-17T04:03:20.003Z,22.60
2023-02-17T04:05:48.279Z,22.60
2023-02-17T04:08:16.553Z,22.70
2023-02-17T04:10:44.775Z,22.70
2023-02-17T04:13:13.140Z,22.90
2023-02-17T04:15:41.401Z,22.90
2023-02-17T04:18:09.670Z,23.10
2023-02-17T04:20:38.041Z,23.20
2023-02-17T04:23:06.275Z,23.30
2023-02-17T04:25:38.714Z,23.40
2023-02-17T04:28:09.796Z,23.50
2023-02-17T04:30:37.636Z,23.60
2023-02-17T04:33:06.434Z,23.70
2023-02-17T04:35:34.246Z,23.40
2023-02-17T04:38:02.484Z,23.20
2023-02-17T04:40:31.465Z,23.10
2023-02-17T04:42:59.722Z,23.20
2023-02-17T04:45:27.959Z,23.30
2023-02-17T04:47:56.280Z,23.40
2023-02-17T04:50:24.553Z,23.60
2023-02-17T04:52:52.812Z,23.60
2023-02-17T04:55:21.291Z,23.40
2023-02-17T04:57:49.571Z,23.20
2023-02-17T05:00:18.089Z,22.90
2023-02-17T05:02:46.189Z,22.80
2023-02-17T05:18:41.932Z,23.10
2023-02-17T05:21:11.784Z,23.20
2023-02-17T05:23:41.673Z,23.30
2023-02-17T05:26:12.268Z,23.30
2023-02-17T05:28:42.163Z,23.40
2023-02-17T05:31:12.329Z,23.50
2023-02-17T05:33:42.341Z,23.60
2023-02-17T05:36:13.806Z,23.70
2023-02-17T05:38:44.052Z,23.40
2023-02-17T05:41:14.287Z,23.10
2023-02-17T05:43:46.755Z,23.00
2023-02-17T05:46:17.275Z,22.80
2023-02-17T05:48:47.682Z,22.70
2023-02-17T05:51:17.944Z,22.60
2023-02-17T05:53:47.912Z,22.60
2023-02-17T05:56:18.109Z,22.60
2023-02-17T05:58:48.539Z,22.50
2023-02-17T06:01:18.735Z,22.50
2023-02-17T06:03:48.915Z,22.50
2023-02-17T06:06:19.171Z,22.50
2023-02-17T06:08:49.425Z,22.70
2023-02-17T06:11:19.412Z,22.80
2023-02-17T06:13:49.375Z,23.00
2023-02-17T06:16:19.585Z,23.00
2023-02-17T06:18:49.516Z,23.10
2023-02-17T06:21:19.465Z,23.20
2023-02-17T06:23:49.620Z,23.30
2023-02-17T06:26:19.498Z,23.40
2023-02-17T06:28:49.725Z,23.50
2023-02-17T06:31:19.750Z,23.60
2023-02-17T06:33:50.264Z,23.60
2023-02-17T06:36:20.169Z,23.30
2023-02-17T06:38:50.432Z,23.00
2023-02-17T06:41:20.412Z,22.80
2023-02-17T06:43:50.650Z,22.90
2023-02-17T06:46:20.835Z,23.00
2023-02-17T06:48:50.774Z,23.10
2023-02-17T06:51:21.953Z,23.20
2023-02-17T06:53:52.483Z,23.30
2023-02-17T06:56:23.233Z,23.40
2023-02-17T06:58:53.925Z,23.50
2023-02-17T07:01:27.554Z,23.60
2023-02-17T07:03:58.712Z,23.40
2023-02-17T07:06:29.009Z,23.20
2023-02-17T07:08:58.891Z,22.90
2023-02-17T07:11:28.757Z,22.70
2023-02-17T07:13:58.881Z,22.70
2023-02-17T07:16:35.079Z,22.90
2023-02-17T07:19:06.756Z,23.00
2023-02-17T07:21:46.308Z,23.20
2023-02-17T07:24:31.163Z,23.20
2023-02-17T07:27:01.943Z,23.30
2023-02-17T07:29:32.317Z,23.40
2023-02-17T07:32:03.632Z,23.60
2023-02-17T07:34:34.100Z,23.70
2023-02-17T07:37:03.921Z,23.70
2023-02-17T07:39:40.058Z,23.60
2023-02-17T07:42:08.682Z,23.30
2023-02-17T07:44:36.988Z,23.10
2023-02-17T07:47:05.213Z,22.90
2023-02-17T07:49:33.538Z,22.80
2023-02-17T07:52:02.979Z,22.70
2023-02-17T07:54:33.333Z,22.70
2023-02-17T07:57:01.675Z,22.60
2023-02-17T07:59:29.994Z,22.60
2023-02-17T08:01:58.392Z,22.50
2023-02-17T08:04:26.728Z,22.50
2023-02-17T08:06:54.909Z,22.50
2023-02-17T08:09:23.224Z,22.50
2023-02-17T08:11:51.389Z,22.50
2023-02-17T08:14:23.006Z,22.60
2023-02-17T08:16:51.332Z,22.60
2023-02-17T08:19:19.479Z,22.60
2023-02-17T08:21:48.256Z,22.60
2023-02-17T08:24:16.837Z,22.60
2023-02-17T08:26:44.845Z,22.70
2023-02-17T08:29:14.344Z,22.80
2023-02-17T08:31:43.306Z,22.90
2023-02-17T08:34:13.567Z,23.00
2023-02-17T08:36:42.219Z,23.10
2023-02-17T08:39:17.314Z,23.10
2023-02-17T08:41:47.047Z,23.20
2023-02-17T08:44:18.422Z,23.30
2023-02-17T08:46:47.709Z,23.40
2023-02-17T08:49:19.048Z,23.50
2023-02-17T08:51:51.302Z,23.60
2023-02-17T08:54:20.359Z,23.40
2023-02-17T08:56:48.698Z,23.10
2023-02-17T08:59:16.958Z,23.20
2023-02-17T09:01:45.381Z,23.20
2023-02-17T09:04:16.013Z,23.30
2023-02-17T09:06:51.200Z,23.40
2023-02-17T09:09:22.217Z,23.40
2023-02-17T09:11:50.681Z,23.50
2023-02-17T09:14:18.790Z,23.60
2023-02-17T09:16:47.187Z,23.70
2023-02-17T09:19:15.460Z,23.40
2023-02-17T09:21:43.848Z,23.20
2023-02-17T09:24:12.290Z,23.10
2023-02-17T09:26:40.662Z,22.90
2023-02-17T09:29:09.391Z,22.80
2023-02-17T09:31:37.440Z,22.70
2023-02-17T09:34:06.147Z,22.70
2023-02-17T09:36:39.494Z,22.60
2023-02-17T09:39:08.266Z,22.50
2023-02-17T09:41:47.096Z,22.50
2023-02-17T09:44:45.818Z,22.50
2023-02-17T09:47:33.154Z,22.40
2023-02-17T09:50:07.288Z,22.40
2023-02-17T09:52:47.459Z,22.30
2023-02-17T09:55:31.848Z,22.40
2023-02-17T09:58:12.581Z,22.40
2023-02-17T10:01:04.077Z,22.30
2023-02-17T10:03:41.626Z,22.30
2023-02-17T10:06:31.760Z,22.30
2023-02-17T10:09:06.027Z,22.30
2023-02-17T10:11:42.936Z,22.30
2023-02-17T10:14:18.507Z,22.20
2023-02-17T10:16:54.816Z,22.20
2023-02-17T10:19:28.878Z,22.20
2023-02-17T10:22:21.941Z,22.20
2023-02-17T10:24:50.585Z,22.20
2023-02-17T10:27:29.504Z,22.20
2023-02-17T10:30:16.297Z,22.20
2023-02-17T10:33:00.021Z,22.20
2023-02-17T10:35:49.527Z,22.10
2023-02-17T10:38:53.036Z,22.10
2023-02-17T10:41:33.171Z,22.20
2023-02-17T10:44:05.729Z,22.20
2023-02-17T10:46:34.218Z,22.10
2023-02-17T10:49:02.678Z,22.20
2023-02-17T10:51:34.984Z,22.20
2023-02-17T10:54:26.341Z,22.20
2023-02-17T10:57:01.933Z,22.20
2023-02-17T10:59:42.425Z,22.20
2023-02-17T11:02:34.077Z,22.20
2023-02-17T11:05:02.280Z,22.20
2023-02-17T11:07:44.433Z,22.20
2023-02-17T11:10:24.985Z,22.20
2023-02-17T11:12:53.564Z,22.20
2023-02-17T11:15:25.228Z,22.20
2023-02-17T11:17:54.375Z,22.20
2023-02-17T11:20:39.692Z,22.20
2023-02-17T11:23:16.113Z,22.20
2023-02-17T11:25:55.237Z,22.20
2023-02-17T11:28:25.260Z,22.20
2023-02-17T11:30:56.959Z,22.20
2023-02-17T11:33:34.809Z,22.20
2023-02-17T11:36:05.498Z,22.10
2023-02-17T11:38:39.880Z,22.20
2023-02-17T11:41:09.371Z,22.20
2023-02-17T11:43:39.077Z,22.20
2023-02-17T11:46:22.284Z,22.20
2023-02-17T11:49:30.101Z,22.20
2023-02-17T11:52:48.371Z,22.30
2023-02-17T11:55:31.200Z,22.30
2023-02-17T11:58:20.313Z,22.20
2023-02-17T12:01:18.025Z,22.20
2023-02-17T12:03:56.765Z,22.20
2023-02-17T12:06:40.149Z,22.20
2023-02-17T12:09:14.382Z,22.20
2023-02-17T12:12:15.888Z,22.30
2023-02-17T12:14:53.504Z,22.30
2023-02-17T12:17:29.118Z,22.20
2023-02-17T12:20:09.662Z,22.20
2023-02-17T12:23:06.590Z,22.10
2023-02-17T12:25:42.301Z,22.10
2023-02-17T12:28:26.030Z,22.20
2023-02-17T12:31:10.906Z,22.50
2023-02-17T12:33:51.714Z,22.70
2023-02-17T12:36:21.614Z,22.80
2023-02-17T12:39:00.194Z,22.90
2023-02-17T12:41:41.935Z,23.10
2023-02-17T12:44:28.727Z,23.20
2023-02-17T12:47:07.401Z,23.20
2023-02-17T12:49:38.202Z,23.30
2023-02-17T12:52:32.025Z,23.40
2023-02-17T12:55:19.902Z,23.50
2023-02-17T12:58:00.999Z,23.60
2023-02-17T13:00:36.397Z,23.30
2023-02-17T13:03:05.763Z,23.10
2023-02-17T13:05:44.856Z,23.00
2023-02-17T13:08:24.480Z,22.80
2023-02-17T13:11:15.604Z,22.80
2023-02-17T13:13:43.881Z,22.70
2023-02-17T13:16:15.349Z,22.70
2023-02-17T13:18:50.514Z,22.60
2023-02-17T13:21:21.906Z,22.60
2023-02-17T13:24:07.195Z,22.60
2023-02-17T13:26:43.550Z,22.60
2023-02-17T13:29:22.192Z,22.60
2023-02-17T13:31:54.100Z,22.60
2023-02-17T13:34:32.489Z,22.50
2023-02-17T13:37:03.856Z,22.50
2023-02-17T13:39:34.055Z,22.50
2023-02-17T13:42:02.801Z,22.50
2023-02-17T13:44:39.362Z,22.40
2023-02-17T13:47:19.929Z,22.40
2023-02-17T13:49:56.584Z,22.40
2023-02-17T13:52:28.224Z,22.40
2023-02-17T13:55:05.258Z,22.40
2023-02-17T13:57:37.884Z,22.30
2023-02-17T14:00:23.694Z,22.30
2023-02-17T14:02:57.785Z,22.30
2023-02-17T14:05:41.170Z,22.30
2023-02-17T14:08:35.544Z,22.30
2023-02-17T14:11:15.775Z,22.30
2023-02-17T14:13:47.155Z,22.40
2023-02-17T14:16:39.437Z,22.40
2023-02-17T14:19:09.354Z,22.40
2023-02-17T14:21:40.558Z,22.40
2023-02-17T14:24:33.338Z,22.40
2023-02-17T14:27:04.943Z,22.40
2023-02-17T14:29:39.990Z,22.40
2023-02-17T14:32:08.617Z,22.40
2023-02-17T14:34:37.293Z,22.40
2023-02-17T14:37:18.816Z,22.40
2023-02-17T14:39:47.087Z,22.40
2023-02-17T14:42:15.489Z,22.40
2023-02-17T14:44:43.808Z,22.40
2023-02-17T14:47:12.036Z,22.40
2023-02-17T14:49:40.325Z,22.50
2023-02-17T14:52:23.050Z,22.40
2023-02-17T14:54:52.104Z,22.40
2023-02-17T14:57:26.574Z,22.40
2023-02-17T14:59:54.954Z,22.40
2023-02-17T15:02:23.389Z,22.40
2023-02-17T15:04:51.718Z,22.50
2023-02-17T15:07:20.628Z,22.50
2023-02-17T15:09:50.255Z,22.40
2023-02-17T15:12:20.613Z,22.40
2023-02-17T15:14:49.094Z,22.40
2023-02-17T15:17:17.734Z,22.40
2023-02-17T15:19:45.610Z,22.50
2023-02-17T15:22:15.144Z,22.40
2023-02-17T15:24:43.299Z,22.50
2023-02-17T15:27:15.297Z,22.40
2023-02-17T15:29:43.456Z,22.40
2023-02-17T15:32:18.070Z,22.40
2023-02-17T15:34:46.529Z,22.50
2023-02-17T15:37:14.819Z,22.50
2023-02-17T15:39:46.809Z,22.50
2023-02-17T15:42:15.717Z,22.60
2023-02-17T15:44:48.289Z,22.50
2023-02-17T15:47:20.640Z,22.40
2023-02-17T15:49:49.220Z,22.30
2023-02-17T15:52:17.271Z,22.50
2023-02-17T15:54:45.540Z,22.70
2023-02-17T15:57:22.540Z,22.90
2023-02-17T15:59:51.138Z,23.00
2023-02-17T16:02:22.932Z,23.20
2023-02-17T16:04:51.265Z,23.20
2023-02-17T16:07:19.474Z,23.30
2023-02-17T16:09:47.741Z,23.40
2023-02-17T16:12:22.371Z,23.50
2023-02-17T16:14:50.582Z,23.60
2023-02-17T16:17:18.756Z,23.60
2023-02-17T16:19:47.136Z,23.70
2023-02-17T16:22:15.405Z,23.80
2023-02-17T16:24:43.622Z,23.70
2023-02-17T16:27:16.632Z,23.30
2023-02-17T16:29:45.031Z,23.10
2023-02-17T16:32:13.924Z,23.00
2023-02-17T16:34:42.025Z,23.20
2023-02-17T16:37:16.967Z,23.30
2023-02-17T16:39:45.869Z,23.40
2023-02-17T16:42:14.839Z,23.60
2023-02-17T16:44:43.058Z,23.80
2023-02-17T16:47:20.909Z,23.90
2023-02-17T16:49:49.778Z,23.70
2023-02-17T16:52:25.347Z,23.50
2023-02-17T16:54:54.658Z,23.40
2023-02-17T16:57:23.528Z,23.30
2023-02-17T16:59:51.527Z,23.20
2023-02-17T17:02:21.650Z,23.10
2023-02-17T17:04:50.349Z,23.10
2023-02-17T17:07:18.478Z,23.10
2023-02-17T17:10:07.012Z,23.10
2023-02-17T17:12:35.155Z,23.10
2023-02-17T17:15:03.733Z,23.00
2023-02-17T17:17:37.364Z,23.00
2023-02-17T17:20:06.325Z,23.10
2023-02-17T17:22:34.409Z,23.10
2023-02-17T17:25:02.780Z,23.00
2023-02-17T17:27:30.895Z,23.10
2023-02-17T17:29:59.275Z,23.00
2023-02-17T17:32:27.662Z,23.00
2023-02-17T17:34:55.999Z,23.10
2023-02-17T17:37:24.157Z,23.10
2023-02-17T17:39:53.986Z,23.10
2023-02-17T17:42:22.346Z,23.20
2023-02-17T17:44:50.612Z,23.20
2023-02-17T17:47:29.302Z,23.30
2023-02-17T17:49:58.762Z,23.30
2023-02-17T17:52:27.104Z,23.30
2023-02-17T17:54:55.478Z,23.20
2023-02-17T17:57:23.713Z,23.30
2023-02-17T17:59:52.473Z,23.40
2023-02-17T18:02:20.704Z,23.30
2023-02-17T18:04:49.016Z,23.20
2023-02-17T18:07:17.830Z,23.20
2023-02-17T18:09:46.446Z,23.10
2023-02-17T18:12:16.470Z,23.10
2023-02-17T18:14:47.988Z,23.10
2023-02-17T18:17:16.788Z,23.10
2023-02-17T18:19:45.399Z,23.00
2023-02-17T18:22:14.050Z,23.00
2023-02-17T18:24:42.528Z,23.10
2023-02-17T18:27:10.826Z,23.10
2023-02-17T18:29:38.958Z,23.10
2023-02-17T18:32:07.671Z,23.20
2023-02-17T18:34:35.664Z,23.20
2023-02-17T18:37:04.197Z,23.20
2023-02-17T18:39:32.695Z,23.20
2023-02-17T18:42:01.199Z,23.10
2023-02-17T18:44:29.349Z,23.10
2023-02-17T18:46:57.789Z,23.30
2023-02-17T18:49:26.131Z,23.40
2023-02-17T18:51:54.364Z,23.50
2023-02-17T18:54:22.752Z,23.40
2023-02-17T18:56:51.091Z,23.30
2023-02-17T18:59:19.502Z,23.10
2023-02-17T19:01:47.923Z,23.10
2023-02-17T19:04:16.310Z,23.00
2023-02-17T19:06:44.718Z,22.90
2023-02-17T19:09:13.228Z,22.90
2023-02-17T19:11:41.703Z,22.90
2023-02-17T19:14:10.315Z,22.90
2023-02-17T19:16:38.320Z,23.00
2023-02-17T19:19:06.819Z,22.90
2023-02-17T19:21:36.442Z,23.00
2023-02-17T19:24:05.010Z,23.00
2023-02-17T19:26:33.505Z,23.00
2023-02-17T19:29:01.617Z,23.00
2023-02-17T19:31:30.050Z,23.10
2023-02-17T19:33:58.606Z,23.20
2023-02-17T19:36:26.982Z,23.10
2023-02-17T19:38:57.580Z,23.10
2023-02-17T19:41:26.153Z,23.20
2023-02-17T19:43:54.465Z,23.40
2023-02-17T19:46:22.923Z,23.50
2023-02-17T19:48:51.297Z,23.50
2023-02-17T19:51:19.995Z,23.30
2023-02-17T19:53:48.448Z,23.20
2023-02-17T19:56:18.136Z,23.10
2023-02-17T19:58:47.316Z,23.10
2023-02-17T20:01:18.258Z,23.00
2023-02-17T20:03:48.881Z,22.90
2023-02-17T20:06:25.826Z,22.90
2023-02-17T20:09:00.120Z,22.90
2023-02-17T20:11:29.702Z,22.90
2023-02-17T20:14:00.013Z,22.90
2023-02-17T20:16:29.874Z,22.90
2023-02-17T20:19:00.262Z,23.00
2023-02-17T20:21:29.812Z,23.00
2023-02-17T20:23:58.503Z,23.00
2023-02-17T20:26:28.170Z,23.10
2023-02-17T20:28:57.295Z,23.10
2023-02-17T20:31:26.960Z,23.20
2023-02-17T20:33:55.815Z,23.10
2023-02-17T20:36:23.837Z,23.00
2023-02-17T20:38:52.382Z,23.20
2023-02-17T20:41:21.745Z,23.30
2023-02-17T20:43:50.966Z,23.50
2023-02-17T20:46:27.285Z,23.60
2023-02-17T20:48:56.729Z,23.70
2023-02-17T20:51:25.063Z,23.50
2023-02-17T20:53:53.409Z,23.30
2023-02-17T20:56:24.234Z,23.20
2023-02-17T20:58:53.266Z,23.10
2023-02-17T21:01:21.581Z,23.00
2023-02-17T21:03:50.578Z,23.00
2023-02-17T21:06:25.237Z,23.00
2023-02-17T21:08:59.337Z,22.90
2023-02-17T21:11:28.531Z,22.90
2023-02-17T21:13:57.121Z,22.90
2023-02-17T21:16:29.152Z,22.90
2023-02-17T21:18:58.552Z,22.90
2023-02-17T21:21:27.533Z,22.90
2023-02-17T21:23:56.349Z,22.90
2023-02-17T21:26:24.803Z,22.90
2023-02-17T21:28:53.119Z,23.00
2023-02-17T21:31:21.721Z,23.00
2023-02-17T21:33:49.957Z,23.10
2023-02-17T21:36:19.455Z,23.30
2023-02-17T21:38:48.627Z,23.40
2023-02-17T21:41:23.211Z,23.50
2023-02-17T21:43:51.758Z,23.40
2023-02-17T21:46:21.600Z,23.20
2023-02-17T21:48:51.123Z,23.20
2023-02-17T21:51:20.659Z,23.40
2023-02-17T21:53:48.827Z,23.60
2023-02-17T21:56:17.911Z,23.70
2023-02-17T21:58:48.209Z,23.60
2023-02-17T22:01:17.500Z,23.30
2023-02-17T22:03:46.102Z,23.00
2023-02-17T22:06:29.438Z,23.10
2023-02-17T22:08:58.675Z,23.20
2023-02-17T22:11:30.969Z,23.30
2023-02-17T22:14:05.399Z,23.50
2023-02-17T22:16:36.127Z,23.70
2023-02-17T22:19:06.486Z,23.90
2023-02-17T22:21:34.909Z,23.90
2023-02-17T22:24:04.023Z,23.70
2023-02-17T22:26:32.781Z,23.50
2023-02-17T22:29:01.198Z,23.30
2023-02-17T22:31:36.204Z,23.30
2023-02-17T22:34:08.064Z,23.20
2023-02-17T22:36:44.285Z,23.10
2023-02-17T22:39:13.110Z,23.10
2023-02-17T22:41:41.816Z,23.00
2023-02-17T22:44:10.563Z,23.00
2023-02-17T22:46:38.681Z,23.00
2023-02-17T22:49:07.720Z,23.00
2023-02-17T22:51:45.296Z,23.00
2023-02-17T22:54:16.595Z,22.90
2023-02-17T22:56:46.478Z,23.00
2023-02-17T23:02:01.191Z,23.00
2023-02-17T23:04:29.495Z,23.00
2023-02-17T23:06:57.922Z,23.00
2023-02-17T23:09:26.320Z,23.10
2023-02-17T23:11:54.639Z,23.10
2023-02-17T23:14:47.251Z,23.10
2023-02-17T23:17:15.702Z,23.10
2023-02-17T23:19:44.124Z,23.10
2023-02-17T23:22:17.820Z,23.20
2023-02-17T23:24:53.975Z,23.40
2023-02-17T23:27:25.269Z,23.50
2023-02-17T23:29:53.898Z,23.70
2023-02-17T23:32:22.220Z,23.70
2023-02-17T23:34:50.573Z,23.50
2023-02-17T23:37:19.002Z,23.30
2023-02-17T23:39:48.407Z,23.20
2023-02-17T23:42:16.866Z,23.10
2023-02-17T23:44:47.854Z,23.10
2023-02-17T23:47:16.244Z,23.00
2023-02-17T23:49:44.657Z,23.00
2023-02-17T23:52:15.262Z,23.00
2023-02-17T23:54:43.612Z,22.90
2023-02-17T23:57:12.113Z,22.90
2023-02-17T23:59:43.301Z,22.90
